CBAPRS
Automatic Packet Reporting System for everyone...
Symbol
PositionLatitude: 47.5748333333°
Longitude: 8.58066666667°
Speed0km/h
Course
AltitudeN/A
Commentg000t033h91b10538P003L000www.wasnlos.ch - Wetterstation Flaach
Status
PathCH79FL-13>APRS via ,TCPIP*,qAC,EIFEL-CB
Last heardMon, 29 Nov 2021 23:52:00 +0000

Time is in UTC

  • Mon, 29 Nov 2021 23:52:00 +0000: CH79FL-13>APRS,,TCPIP*,qAC,EIFEL-CB:@292352z4734.49N/00834.84E_117/001g000t033h91b10538P003L000www.wasnlos.ch - Wetterstation Flaach
  • Mon, 29 Nov 2021 23:50:00 +0000: CH79FL-13>APRS,,TCPIP*,qAC,EIFEL-CB:@292350z4734.49N/00834.84E_129/001g000t033h90b10534P003L000www.wasnlos.ch - Wetterstation Flaach
  • Mon, 29 Nov 2021 23:48:00 +0000: CH79FL-13>APRS,,TCPIP*,qAC,EIFEL-CB:@292348z4734.49N/00834.84E_283/002g001t033h90b10538P003L000www.wasnlos.ch - Wetterstation Flaach
  • Mon, 29 Nov 2021 23:46:00 +0000: CH79FL-13>APRS,,TCPIP*,qAC,EIFEL-CB:@292346z4734.49N/00834.84E_196/004g002t033h91b10538P003L000www.wasnlos.ch - Wetterstation Flaach
  • Mon, 29 Nov 2021 23:44:00 +0000: CH79FL-13>APRS,,TCPIP*,qAC,EIFEL-CB:@292344z4734.49N/00834.84E_169/001g000t033h90b10537P003L000www.wasnlos.ch - Wetterstation Flaach
  • Mon, 29 Nov 2021 23:42:00 +0000: CH79FL-13>APRS,,TCPIP*,qAC,EIFEL-CB:@292342z4734.49N/00834.84E_289/003g001t033h90b10535P003L000www.wasnlos.ch - Wetterstation Flaach
  • Mon, 29 Nov 2021 23:40:00 +0000: CH79FL-13>APRS,,TCPIP*,qAC,EIFEL-CB:@292340z4734.49N/00834.84E_211/001g001t033h90b10537P003L000www.wasnlos.ch - Wetterstation Flaach
  • Mon, 29 Nov 2021 23:38:00 +0000: CH79FL-13>APRS,,TCPIP*,qAC,EIFEL-CB:@292338z4734.49N/00834.84E_140/002g001t033h90b10537P003L000www.wasnlos.ch - Wetterstation Flaach
  • Mon, 29 Nov 2021 23:36:00 +0000: CH79FL-13>APRS,,TCPIP*,qAC,EIFEL-CB:@292336z4734.49N/00834.84E_024/000g000t033h90b10536P003L000www.wasnlos.ch - Wetterstation Flaach
  • Mon, 29 Nov 2021 23:34:00 +0000: CH79FL-13>APRS,,TCPIP*,qAC,EIFEL-CB:@292334z4734.49N/00834.84E_296/001g000t033h90b10538P003L000www.wasnlos.ch - Wetterstation Flaach
  • Mon, 29 Nov 2021 23:32:00 +0000: CH79FL-13>APRS,,TCPIP*,qAC,EIFEL-CB:@292332z4734.49N/00834.84E_139/001g001t033h91b10537P003L000www.wasnlos.ch - Wetterstation Flaach
  • Mon, 29 Nov 2021 23:30:00 +0000: CH79FL-13>APRS,,TCPIP*,qAC,EIFEL-CB:@292330z4734.49N/00834.84E_320/002g001t033h90b10535P003L000www.wasnlos.ch - Wetterstation Flaach
  • Mon, 29 Nov 2021 23:28:00 +0000: CH79FL-13>APRS,,TCPIP*,qAC,EIFEL-CB:@292328z4734.49N/00834.84E_300/005g002t033h90b10538P003L000www.wasnlos.ch - Wetterstation Flaach
  • Mon, 29 Nov 2021 23:26:00 +0000: CH79FL-13>APRS,,TCPIP*,qAC,EIFEL-CB:@292326z4734.49N/00834.84E_335/002g001t033h90b10537P003L000www.wasnlos.ch - Wetterstation Flaach
  • Mon, 29 Nov 2021 23:24:00 +0000: CH79FL-13>APRS,,TCPIP*,qAC,EIFEL-CB:@292324z4734.49N/00834.84E_324/003g001t033h90b10536P003L000www.wasnlos.ch - Wetterstation Flaach
  • Mon, 29 Nov 2021 23:22:00 +0000: CH79FL-13>APRS,,TCPIP*,qAC,EIFEL-CB:@292322z4734.49N/00834.84E_032/002g001t033h89b10537P003L000www.wasnlos.ch - Wetterstation Flaach
  • Mon, 29 Nov 2021 23:20:00 +0000: CH79FL-13>APRS,,TCPIP*,qAC,EIFEL-CB:@292320z4734.49N/00834.84E_196/001g001t033h89b10537P003L000www.wasnlos.ch - Wetterstation Flaach
  • Mon, 29 Nov 2021 23:18:00 +0000: CH79FL-13>APRS,,TCPIP*,qAC,EIFEL-CB:@292318z4734.49N/00834.84E_309/002g001t033h89b10536P003L000www.wasnlos.ch - Wetterstation Flaach
  • Mon, 29 Nov 2021 23:16:00 +0000: CH79FL-13>APRS,,TCPIP*,qAC,EIFEL-CB:@292316z4734.49N/00834.84E_197/002g001t033h88b10535P003L000www.wasnlos.ch - Wetterstation Flaach
  • Mon, 29 Nov 2021 23:14:00 +0000: CH79FL-13>APRS,,TCPIP*,qAC,EIFEL-CB:@292314z4734.49N/00834.84E_318/003g001t033h89b10534P003L000www.wasnlos.ch - Wetterstation Flaach
  • Mon, 29 Nov 2021 23:12:00 +0000: CH79FL-13>APRS,,TCPIP*,qAC,EIFEL-CB:@292312z4734.49N/00834.84E_266/001g001t033h88b10534P003L000www.wasnlos.ch - Wetterstation Flaach
  • Mon, 29 Nov 2021 23:10:00 +0000: CH79FL-13>APRS,,TCPIP*,qAC,EIFEL-CB:@292310z4734.49N/00834.84E_305/004g002t033h87b10534P003L000www.wasnlos.ch - Wetterstation Flaach
  • Mon, 29 Nov 2021 23:08:00 +0000: CH79FL-13>APRS,,TCPIP*,qAC,EIFEL-CB:@292308z4734.49N/00834.84E_307/003g001t033h88b10531P003L000www.wasnlos.ch - Wetterstation Flaach
  • Mon, 29 Nov 2021 23:06:00 +0000: CH79FL-13>APRS,,TCPIP*,qAC,EIFEL-CB:@292306z4734.49N/00834.84E_220/004g001t033h87b10531P003L000www.wasnlos.ch - Wetterstation Flaach
  • Mon, 29 Nov 2021 23:04:00 +0000: CH79FL-13>APRS,,TCPIP*,qAC,EIFEL-CB:@292304z4734.49N/00834.84E_310/002g001t033h87b10531P003L000www.wasnlos.ch - Wetterstation Flaach
  • Mon, 29 Nov 2021 23:02:00 +0000: CH79FL-13>APRS,,TCPIP*,qAC,EIFEL-CB:@292302z4734.49N/00834.84E_170/001g000t033h87b10530P003L000www.wasnlos.ch - Wetterstation Flaach
  • Mon, 29 Nov 2021 23:00:00 +0000: CH79FL-13>APRS,,TCPIP*,qAC,EIFEL-CB:@292300z4734.49N/00834.84E_164/003g002t033h87b10530P003L000www.wasnlos.ch - Wetterstation Flaach
  • Mon, 29 Nov 2021 22:58:00 +0000: CH79FL-13>APRS,,TCPIP*,qAC,EIFEL-CB:@292258z4734.49N/00834.84E_262/003g002t033h88b10530P003L000www.wasnlos.ch - Wetterstation Flaach
  • Mon, 29 Nov 2021 22:56:00 +0000: CH79FL-13>APRS,,TCPIP*,qAC,EIFEL-CB:@292256z4734.49N/00834.84E_077/001g000t033h88b10531P003L000www.wasnlos.ch - Wetterstation Flaach
  • Mon, 29 Nov 2021 22:54:00 +0000: CH79FL-13>APRS,,TCPIP*,qAC,EIFEL-CB:@292254z4734.49N/00834.84E_195/003g001t033h88b10529P003L000www.wasnlos.ch - Wetterstation Flaach
  • Mon, 29 Nov 2021 22:52:00 +0000: CH79FL-13>APRS,,TCPIP*,qAC,EIFEL-CB:@292252z4734.49N/00834.84E_304/002g001t033h88b10529P003L000www.wasnlos.ch - Wetterstation Flaach
  • Mon, 29 Nov 2021 22:50:00 +0000: CH79FL-13>APRS,,TCPIP*,qAC,EIFEL-CB:@292250z4734.49N/00834.84E_167/001g000t033h88b10529P003L000www.wasnlos.ch - Wetterstation Flaach
  • Mon, 29 Nov 2021 22:48:00 +0000: CH79FL-13>APRS,,TCPIP*,qAC,EIFEL-CB:@292248z4734.49N/00834.84E_212/002g001t033h88b10527P003L000www.wasnlos.ch - Wetterstation Flaach
  • Mon, 29 Nov 2021 22:46:00 +0000: CH79FL-13>APRS,,TCPIP*,qAC,EIFEL-CB:@292246z4734.49N/00834.84E_231/004g002t033h87b10529P003L000www.wasnlos.ch - Wetterstation Flaach
  • Mon, 29 Nov 2021 22:44:00 +0000: CH79FL-13>APRS,,TCPIP*,qAC,EIFEL-CB:@292244z4734.49N/00834.84E_312/001g001t033h87b10528P003L000www.wasnlos.ch - Wetterstation Flaach
  • Mon, 29 Nov 2021 22:42:00 +0000: CH79FL-13>APRS,,TCPIP*,qAC,EIFEL-CB:@292242z4734.49N/00834.84E_185/001g000t033h88b10530P003L000www.wasnlos.ch - Wetterstation Flaach
  • Mon, 29 Nov 2021 22:40:00 +0000: CH79FL-13>APRS,,TCPIP*,qAC,EIFEL-CB:@292240z4734.49N/00834.84E_307/002g001t033h89b10529P003L000www.wasnlos.ch - Wetterstation Flaach
  • Mon, 29 Nov 2021 22:38:00 +0000: CH79FL-13>APRS,,TCPIP*,qAC,EIFEL-CB:@292238z4734.49N/00834.84E_123/001g001t033h87b10524P003L000www.wasnlos.ch - Wetterstation Flaach
  • Mon, 29 Nov 2021 22:36:00 +0000: CH79FL-13>APRS,,TCPIP*,qAC,EIFEL-CB:@292236z4734.49N/00834.84E_160/001g001t033h88b10526P003L000www.wasnlos.ch - Wetterstation Flaach
  • Mon, 29 Nov 2021 22:34:00 +0000: CH79FL-13>APRS,,TCPIP*,qAC,EIFEL-CB:@292234z4734.49N/00834.84E_002/001g000t033h87b10527P003L000www.wasnlos.ch - Wetterstation Flaach
  • Mon, 29 Nov 2021 22:32:00 +0000: CH79FL-13>APRS,,TCPIP*,qAC,EIFEL-CB:@292232z4734.49N/00834.84E_140/001g000t033h87b10528P003L000www.wasnlos.ch - Wetterstation Flaach
  • Mon, 29 Nov 2021 22:30:00 +0000: CH79FL-13>APRS,,TCPIP*,qAC,EIFEL-CB:@292230z4734.49N/00834.84E_209/002g001t033h87b10528P003L000www.wasnlos.ch - Wetterstation Flaach
  • Mon, 29 Nov 2021 22:28:00 +0000: CH79FL-13>APRS,,TCPIP*,qAC,EIFEL-CB:@292228z4734.49N/00834.84E_215/005g002t033h87b10527P003L000www.wasnlos.ch - Wetterstation Flaach
  • Mon, 29 Nov 2021 22:26:00 +0000: CH79FL-13>APRS,,TCPIP*,qAC,EIFEL-CB:@292226z4734.49N/00834.84E_210/002g001t033h87b10528P003L000www.wasnlos.ch - Wetterstation Flaach
  • Mon, 29 Nov 2021 22:24:00 +0000: CH79FL-13>APRS,,TCPIP*,qAC,EIFEL-CB:@292224z4734.49N/00834.84E_213/004g001t033h88b10529P003L000www.wasnlos.ch - Wetterstation Flaach
  • Mon, 29 Nov 2021 22:22:00 +0000: CH79FL-13>APRS,,TCPIP*,qAC,EIFEL-CB:@292222z4734.49N/00834.84E_295/004g002t033h88b10530P003L000www.wasnlos.ch - Wetterstation Flaach
  • Mon, 29 Nov 2021 22:20:00 +0000: CH79FL-13>APRS,,TCPIP*,qAC,EIFEL-CB:@292220z4734.49N/00834.84E_224/002g001t033h88b10526P003L000www.wasnlos.ch - Wetterstation Flaach
  • Mon, 29 Nov 2021 22:18:00 +0000: CH79FL-13>APRS,,TCPIP*,qAC,EIFEL-CB:@292218z4734.49N/00834.84E_219/003g001t033h89b10526P003L000www.wasnlos.ch - Wetterstation Flaach
  • Mon, 29 Nov 2021 22:16:00 +0000: CH79FL-13>APRS,,TCPIP*,qAC,EIFEL-CB:@292216z4734.49N/00834.84E_159/002g001t033h89b10526P003L000www.wasnlos.ch - Wetterstation Flaach
  • Mon, 29 Nov 2021 22:14:00 +0000: CH79FL-13>APRS,,TCPIP*,qAC,EIFEL-CB:@292214z4734.49N/00834.84E_297/005g002t033h89b10525P003L000www.wasnlos.ch - Wetterstation Flaach
  • Mon, 29 Nov 2021 22:12:00 +0000: CH79FL-13>APRS,,TCPIP*,qAC,EIFEL-CB:@292212z4734.49N/00834.84E_273/002g001t033h89b10527P003L000www.wasnlos.ch - Wetterstation Flaach
  • Mon, 29 Nov 2021 22:10:00 +0000: CH79FL-13>APRS,,TCPIP*,qAC,EIFEL-CB:@292210z4734.49N/00834.84E_349/002g002t033h89b10526P003L000www.wasnlos.ch - Wetterstation Flaach
  • Mon, 29 Nov 2021 22:08:00 +0000: CH79FL-13>APRS,,TCPIP*,qAC,EIFEL-CB:@292208z4734.49N/00834.84E_276/002g001t033h88b10525P003L000www.wasnlos.ch - Wetterstation Flaach
  • Mon, 29 Nov 2021 22:06:00 +0000: CH79FL-13>APRS,,TCPIP*,qAC,EIFEL-CB:@292206z4734.49N/00834.84E_304/004g002t033h87b10524P003L000www.wasnlos.ch - Wetterstation Flaach
  • Mon, 29 Nov 2021 22:04:00 +0000: CH79FL-13>APRS,,TCPIP*,qAC,EIFEL-CB:@292204z4734.49N/00834.84E_261/004g002t033h86b10527P003L000www.wasnlos.ch - Wetterstation Flaach
  • Mon, 29 Nov 2021 22:02:00 +0000: CH79FL-13>APRS,,TCPIP*,qAC,EIFEL-CB:@292202z4734.49N/00834.84E_277/006g002t033h85b10525P003L000www.wasnlos.ch - Wetterstation Flaach
  • Mon, 29 Nov 2021 22:00:00 +0000: CH79FL-13>APRS,,TCPIP*,qAC,EIFEL-CB:@292200z4734.49N/00834.84E_237/004g002t033h85b10527P003L000www.wasnlos.ch - Wetterstation Flaach
  • Mon, 29 Nov 2021 21:58:00 +0000: CH79FL-13>APRS,,TCPIP*,qAC,EIFEL-CB:@292158z4734.49N/00834.84E_250/004g001t033h85b10523P003L000www.wasnlos.ch - Wetterstation Flaach
  • Mon, 29 Nov 2021 21:56:00 +0000: CH79FL-13>APRS,,TCPIP*,qAC,EIFEL-CB:@292156z4734.49N/00834.84E_298/003g001t033h85b10524P003L000www.wasnlos.ch - Wetterstation Flaach
  • Mon, 29 Nov 2021 21:54:00 +0000: CH79FL-13>APRS,,TCPIP*,qAC,EIFEL-CB:@292154z4734.49N/00834.84E_300/002g001t033h84b10524P003L000www.wasnlos.ch - Wetterstation Flaach
  • Mon, 29 Nov 2021 21:52:00 +0000: CH79FL-13>APRS,,TCPIP*,qAC,EIFEL-CB:@292152z4734.49N/00834.84E_251/005g002t033h85b10522P003L000www.wasnlos.ch - Wetterstation Flaach
  • Mon, 29 Nov 2021 21:50:00 +0000: CH79FL-13>APRS,,TCPIP*,qAC,EIFEL-CB:@292150z4734.49N/00834.84E_312/004g002t033h84b10524P003L000www.wasnlos.ch - Wetterstation Flaach
  • Mon, 29 Nov 2021 21:48:00 +0000: CH79FL-13>APRS,,TCPIP*,qAC,EIFEL-CB:@292148z4734.49N/00834.84E_297/006g002t033h85b10525P003L000www.wasnlos.ch - Wetterstation Flaach
  • Mon, 29 Nov 2021 21:46:00 +0000: CH79FL-13>APRS,,TCPIP*,qAC,EIFEL-CB:@292146z4734.49N/00834.84E_274/004g001t033h85b10524P003L000www.wasnlos.ch - Wetterstation Flaach
  • Mon, 29 Nov 2021 21:44:00 +0000: CH79FL-13>APRS,,TCPIP*,qAC,EIFEL-CB:@292144z4734.49N/00834.84E_266/003g002t033h85b10524P003L000www.wasnlos.ch - Wetterstation Flaach
  • Mon, 29 Nov 2021 21:42:00 +0000: CH79FL-13>APRS,,TCPIP*,qAC,EIFEL-CB:@292142z4734.49N/00834.84E_242/006g002t033h85b10522P003L000www.wasnlos.ch - Wetterstation Flaach
  • Mon, 29 Nov 2021 21:40:00 +0000: CH79FL-13>APRS,,TCPIP*,qAC,EIFEL-CB:@292140z4734.49N/00834.84E_262/007g002t033h86b10522P003L000www.wasnlos.ch - Wetterstation Flaach
  • Mon, 29 Nov 2021 21:38:00 +0000: CH79FL-13>APRS,,TCPIP*,qAC,EIFEL-CB:@292138z4734.49N/00834.84E_248/007g002t033h86b10521P003L000www.wasnlos.ch - Wetterstation Flaach
  • Mon, 29 Nov 2021 21:36:00 +0000: CH79FL-13>APRS,,TCPIP*,qAC,EIFEL-CB:@292136z4734.49N/00834.84E_247/005g002t033h86b10518P003L000www.wasnlos.ch - Wetterstation Flaach
  • Mon, 29 Nov 2021 21:34:00 +0000: CH79FL-13>APRS,,TCPIP*,qAC,EIFEL-CB:@292134z4734.49N/00834.84E_275/005g002t033h87b10521P003L000www.wasnlos.ch - Wetterstation Flaach
  • Mon, 29 Nov 2021 21:32:00 +0000: CH79FL-13>APRS,,TCPIP*,qAC,EIFEL-CB:@292132z4734.49N/00834.84E_291/007g002t033h87b10523P003L000www.wasnlos.ch - Wetterstation Flaach
  • Mon, 29 Nov 2021 21:30:00 +0000: CH79FL-13>APRS,,TCPIP*,qAC,EIFEL-CB:@292130z4734.49N/00834.84E_220/006g002t033h87b10518P003L000www.wasnlos.ch - Wetterstation Flaach
  • Mon, 29 Nov 2021 21:28:00 +0000: CH79FL-13>APRS,,TCPIP*,qAC,EIFEL-CB:@292128z4734.49N/00834.84E_285/006g002t033h87b10519P003L000www.wasnlos.ch - Wetterstation Flaach
  • Mon, 29 Nov 2021 21:26:00 +0000: CH79FL-13>APRS,,TCPIP*,qAC,EIFEL-CB:@292126z4734.49N/00834.84E_232/007g002t033h87b10519P003L000www.wasnlos.ch - Wetterstation Flaach
  • Mon, 29 Nov 2021 21:24:00 +0000: CH79FL-13>APRS,,TCPIP*,qAC,EIFEL-CB:@292124z4734.49N/00834.84E_308/005g002t033h85b10521P003L000www.wasnlos.ch - Wetterstation Flaach
  • Mon, 29 Nov 2021 21:22:00 +0000: CH79FL-13>APRS,,TCPIP*,qAC,EIFEL-CB:@292122z4734.49N/00834.84E_320/005g002t033h84b10521P003L000www.wasnlos.ch - Wetterstation Flaach
  • Mon, 29 Nov 2021 21:20:00 +0000: CH79FL-13>APRS,,TCPIP*,qAC,EIFEL-CB:@292120z4734.49N/00834.84E_276/004g002t033h84b10521P003L000www.wasnlos.ch - Wetterstation Flaach
  • Mon, 29 Nov 2021 21:18:00 +0000: CH79FL-13>APRS,,TCPIP*,qAC,EIFEL-CB:@292118z4734.49N/00834.84E_290/005g002t033h84b10518P003L000www.wasnlos.ch - Wetterstation Flaach
  • Mon, 29 Nov 2021 21:16:00 +0000: CH79FL-13>APRS,,TCPIP*,qAC,EIFEL-CB:@292116z4734.49N/00834.84E_298/001g001t033h85b10521P003L000www.wasnlos.ch - Wetterstation Flaach
  • Mon, 29 Nov 2021 21:14:00 +0000: CH79FL-13>APRS,,TCPIP*,qAC,EIFEL-CB:@292114z4734.49N/00834.84E_319/002g001t033h84b10518P003L000www.wasnlos.ch - Wetterstation Flaach
  • Mon, 29 Nov 2021 21:12:00 +0000: CH79FL-13>APRS,,TCPIP*,qAC,EIFEL-CB:@292112z4734.49N/00834.84E_291/007g002t033h85b10519P003L000www.wasnlos.ch - Wetterstation Flaach
  • Mon, 29 Nov 2021 21:10:00 +0000: CH79FL-13>APRS,,TCPIP*,qAC,EIFEL-CB:@292110z4734.49N/00834.84E_290/006g002t033h85b10518P003L000www.wasnlos.ch - Wetterstation Flaach
  • Mon, 29 Nov 2021 21:08:00 +0000: CH79FL-13>APRS,,TCPIP*,qAC,EIFEL-CB:@292108z4734.49N/00834.84E_283/007g003t033h86b10519P003L000www.wasnlos.ch - Wetterstation Flaach
  • Mon, 29 Nov 2021 21:06:00 +0000: CH79FL-13>APRS,,TCPIP*,qAC,EIFEL-CB:@292106z4734.49N/00834.84E_291/009g003t033h87b10521P003L000www.wasnlos.ch - Wetterstation Flaach
  • Mon, 29 Nov 2021 21:04:00 +0000: CH79FL-13>APRS,,TCPIP*,qAC,EIFEL-CB:@292104z4734.49N/00834.84E_232/007g003t033h87b10518P003L000www.wasnlos.ch - Wetterstation Flaach
  • Mon, 29 Nov 2021 21:02:00 +0000: CH79FL-13>APRS,,TCPIP*,qAC,EIFEL-CB:@292102z4734.49N/00834.84E_290/006g002t033h85b10520P003L000www.wasnlos.ch - Wetterstation Flaach
  • Mon, 29 Nov 2021 21:00:00 +0000: CH79FL-13>APRS,,TCPIP*,qAC,EIFEL-CB:@292100z4734.49N/00834.84E_271/004g002t033h84b10518P003L000www.wasnlos.ch - Wetterstation Flaach
  • Mon, 29 Nov 2021 20:58:00 +0000: CH79FL-13>APRS,,TCPIP*,qAC,EIFEL-CB:@292058z4734.49N/00834.84E_249/007g002t033h84b10521P003L000www.wasnlos.ch - Wetterstation Flaach
  • Mon, 29 Nov 2021 20:56:00 +0000: CH79FL-13>APRS,,TCPIP*,qAC,EIFEL-CB:@292056z4734.49N/00834.84E_280/006g002t033h84b10519P003L000www.wasnlos.ch - Wetterstation Flaach
  • Mon, 29 Nov 2021 20:54:00 +0000: CH79FL-13>APRS,,TCPIP*,qAC,EIFEL-CB:@292054z4734.49N/00834.84E_301/007g003t033h84b10516P003L000www.wasnlos.ch - Wetterstation Flaach
  • Mon, 29 Nov 2021 20:52:00 +0000: CH79FL-13>APRS,,TCPIP*,qAC,EIFEL-CB:@292052z4734.49N/00834.84E_277/007g002t033h84b10515P003L000www.wasnlos.ch - Wetterstation Flaach
  • Mon, 29 Nov 2021 20:50:00 +0000: CH79FL-13>APRS,,TCPIP*,qAC,EIFEL-CB:@292050z4734.49N/00834.84E_202/006g002t033h84b10518P003L000www.wasnlos.ch - Wetterstation Flaach
  • Mon, 29 Nov 2021 20:48:00 +0000: CH79FL-13>APRS,,TCPIP*,qAC,EIFEL-CB:@292048z4734.49N/00834.84E_247/004g002t033h83b10515P003L000www.wasnlos.ch - Wetterstation Flaach
  • Mon, 29 Nov 2021 20:46:00 +0000: CH79FL-13>APRS,,TCPIP*,qAC,EIFEL-CB:@292046z4734.49N/00834.84E_315/004g002t033h83b10514P003L000www.wasnlos.ch - Wetterstation Flaach
  • Mon, 29 Nov 2021 20:44:00 +0000: CH79FL-13>APRS,,TCPIP*,qAC,EIFEL-CB:@292044z4734.49N/00834.84E_188/008g003t033h82b10514P003L000www.wasnlos.ch - Wetterstation Flaach
  • Mon, 29 Nov 2021 20:42:00 +0000: CH79FL-13>APRS,,TCPIP*,qAC,EIFEL-CB:@292042z4734.49N/00834.84E_228/008g003t033h82b10516P003L000www.wasnlos.ch - Wetterstation Flaach
  • Mon, 29 Nov 2021 20:40:00 +0000: CH79FL-13>APRS,,TCPIP*,qAC,EIFEL-CB:@292040z4734.49N/00834.84E_245/008g003t033h82b10514P003L000www.wasnlos.ch - Wetterstation Flaach
  • Mon, 29 Nov 2021 20:38:00 +0000: CH79FL-13>APRS,,TCPIP*,qAC,EIFEL-CB:@292038z4734.49N/00834.84E_222/006g002t033h82b10513P003L000www.wasnlos.ch - Wetterstation Flaach
  • Mon, 29 Nov 2021 20:36:00 +0000: CH79FL-13>APRS,,TCPIP*,qAC,EIFEL-CB:@292036z4734.49N/00834.84E_300/007g002t033h81b10513P003L000www.wasnlos.ch - Wetterstation Flaach
  • Mon, 29 Nov 2021 20:34:00 +0000: CH79FL-13>APRS,,TCPIP*,qAC,EIFEL-CB:@292034z4734.49N/00834.84E_269/005g002t033h80b10516P003L000www.wasnlos.ch - Wetterstation Flaach